Regina International Airport
CYQR : now visible

Airfield :











YOU CAN JOIN US ON...

 
LOGIN :

Register | Disclaimer

   EN    FR    IT 

 









Legend :    VFR   Marginal VFR   IFR   Intensive IFR   Very Intensive IFR
Visi :
Ceiling :
>= 8 km
>= 3000ft
5 to 8 km
1000 to 3000 ft
1500m to 5 km
500 to 1000 ft
800 to 1500m
200 to 500 ft
< 800m
< 200 ft
Symbols :   Thunderstorms  Fog  Heavy snow  Heavy precipitations  Wind > 20 kt







- Airport Elevation : 1894 ft
- IATA code : YQR


CYQR - Regina International

CURRENT METAR :
  • 211000Z 11013KT 15SM FEW140 FEW270 07/M02 A3004 RMK AC1CI1 AC TR CI TR SLP188

EXPIRED METARs :
  • 210900Z 11010KT 15SM FEW270 07/M03 A3003 RMK CI2 SLP184
  • 210800Z 12008KT 15SM FEW270 06/M03 A3004 RMK CI2 SLP187

TAF TAF CYQR
Valid from the 21 at 06:00 until the 22 at 06:00 UTC


210538Z 2106/2206 12012KT P6SM SCT270
FM211400 12012KT P6SM SCT090
FM211700 12015G25KT P6SM BKN100
BECMG 2122/2124 08010KT
FM220500 08010KT P6SM SCT120 RMK NXT FCST BY 211200Z
CZWG FIR / North America



MET'MAP, your aeronautical weather chart ! - Copyright ORBIFLY December 2007 - Disclaimer

ORBIFLY MET'MAP TEAM :

Programming & Development : Alexandra Zaïnal
Concept & Development : Baudouin d'Aumeries
Co-Development & Prog : Marc-Olivier Méhu
Technical & hardware support : Manuel Goepfert

Contact : metmap@orbifly.com




SOURCES & CREDITS :

   NOAA       Earth
Advisory